- Siena (Round Rock, TX) - Nearby METAR Reports

Nearby METAR Reports

 

KEDC - Austin Exec, Texas, USA
Distance from station: SSE 10mi, 17km
Updated: Wed, 17-Jul-2024 4:55am CDT
Partly cloudy
Partly cloudy
 Wind from SSW
Wind: SSW 5 mph , 7 km/h
Temperature: 77°F , 25°C
Dew Point: 77°F , 25°C
Humidity: 100%
Barometer: 29.98 inHg , 1015.2 hPa
Clouds: Partly cloudy
Visibility: 7 miles , 11 km
Cloud details: Partly cloudy 1400 ft
2024/07/17 09:55 KEDC 170955Z AUTO 20004KT 7SM SCT014 25/25 A2998 RMK AO2
KGTU - Georgetown, Texas, USA
Distance from station: NNW 11mi, 17km
Updated: Wed, 17-Jul-2024 4:56am CDT
Clear
Clear
 Wind from SSW
Wind: SSW 5 mph , 7 km/h
Temperature: 79°F , 26°C
Dew Point: 72°F , 22°C
Humidity: 79%
Barometer: 30.02 inHg , 1016.6 hPa
Clouds: Clear
Visibility: 10 miles , 16 km
2024/07/17 09:56 KGTU 170956Z AUTO 20004KT 10SM CLR 26/22 A3002 RMK AO2 SLP156 T02610217
 
KATT - Austin/Mabry, Texas, USA
Distance from station: SSW 18mi, 30km
Updated: Wed, 17-Jul-2024 4:51am CDT
Few Clouds
Few Clouds
 Wind from varies
Wind: varies 5 mph , 7 km/h
Temperature: 79°F , 26°C
Dew Point: 73°F , 23°C
Humidity: 84%
Barometer: 30.00 inHg , 1015.9 hPa
Clouds: Few Clouds
Visibility: 10 miles , 16 km
Cloud details: Few Clouds 1700 ft
2024/07/17 09:51 KATT 170951Z AUTO VRB04KT 10SM FEW017 26/23 A3000 RMK AO2 SLP142 T02610233
KRYW - Lago Vista, Texas, USA
Distance from station: W 22mi, 35km
Updated: Wed, 17-Jul-2024 4:55am CDT
Clear
Clear
 Wind from S
Wind: S 5 mph , 7 km/h
Temperature: 77°F , 25°C
Dew Point: 73°F , 23°C
Humidity: 89%
Barometer: 30.05 inHg , 1017.6 hPa
Clouds: Clear
Visibility: 10 miles , 16 km
2024/07/17 09:55 KRYW 170955Z AUTO 19004KT 10SM CLR 25/23 A3005 RMK AO2 T02450233
 
KAUS - Austin, Texas, USA
Distance from station: S 25mi, 41km
Updated: Wed, 17-Jul-2024 4:53am CDT
Few Clouds
Few Clouds
 Wind from calm
Wind: Calm
Temperature: 75°F , 24°C
Dew Point: 75°F , 24°C
Humidity: 100%
Barometer: 29.98 inHg , 1015.2 hPa
Clouds: Few Clouds
Visibility: 10 miles , 16 km
Cloud details: Few Clouds 1100 ft
2024/07/17 09:53 KAUS 170953Z 00000KT 10SM FEW011 24/24 A2998 RMK AO2 SLP140 T02440239
KILE - Killeen Muni, Texas, USA
Distance from station: N 36mi, 58km
Updated: Wed, 17-Jul-2024 4:56am CDT
Clear
Clear
 Wind from S
Wind: S 8 mph , 13 km/h
Temperature: 77°F , 25°C
Dew Point: 73°F , 23°C
Humidity: 89%
Barometer: 30.01 inHg , 1016.3 hPa
Clouds: Clear
Visibility: 10 miles , 16 km
2024/07/17 09:56 KILE 170956Z AUTO 19007KT 10SM CLR 25/23 A3001 RMK AO2 SLP146 T02500228
 
KGRK - Gray/Ft Hood, Texas, USA
Distance from station: NNW 38mi, 62km
Updated: Wed, 17-Jul-2024 4:55am CDT
Clear
Clear
 Wind from S
Wind: S 6 mph , 9 km/h
Temperature: 79°F , 26°C
Dew Point: 73°F , 23°C
Humidity: 84%
Barometer: 30.00 inHg , 1015.9 hPa
Clouds: Clear
Visibility: 10 miles , 16 km
2024/07/17 09:55 KGRK 170955Z AUTO 17005KT 10SM CLR 26/23 A3000 RMK AO2 SLP143 T02560229
KBMQ - Burnet, Texas, USA
Distance from station: WNW 39mi, 64km
Updated: Wed, 17-Jul-2024 4:53am CDT
Clear
Clear
 Wind from S
Wind: S 7 mph , 11 km/h
Temperature: 77°F , 25°C
Dew Point: 73°F , 23°C
Humidity: 89%
Barometer: 30.03 inHg , 1016.9 hPa
Clouds: Clear
Visibility: 10 miles , 16 km
2024/07/17 09:53 KBMQ 170953Z AUTO 18006KT 10SM CLR 25/23 A3003 RMK AO2 SLP147 T02500233
 
KHLR - Ft Hood/Killeen, Texas, USA
Distance from station: N 41mi, 66km
Updated: Wed, 17-Jul-2024 4:55am CDT
Clear
Clear
 Wind from S
Wind: S 7 mph , 11 km/h
Temperature: 79°F , 26°C
Dew Point: 73°F , 23°C
Humidity: 84%
Barometer: 29.99 inHg , 1015.6 hPa
Clouds: Clear
Visibility: 10 miles , 16 km
2024/07/17 09:55 KHLR 170955Z AUTO 19006KT 10SM CLR 26/23 A2999 RMK AO2 SLP143 T02600225
KTPL - Temple/Miller, Texas, USA
Distance from station: NNE 42mi, 68km
Updated: Wed, 17-Jul-2024 4:51am CDT
Clear
Clear
 Wind from S
Wind: S 9 mph , 15 km/h
Temperature: 79°F , 26°C
Dew Point: 75°F , 24°C
Humidity: 89%
Barometer: 30.00 inHg , 1015.9 hPa
Clouds: Clear
Visibility: 10 miles , 16 km
2024/07/17 09:51 KTPL 170951Z AUTO 17008KT 10SM CLR 26/24 A3000 RMK AO2 SLP146 T02560239
 
KT35 - Cameron, Texas, USA
Distance from station: ENE 45mi, 72km
Updated: Wed, 17-Jul-2024 4:55am CDT
Clear
Clear
 Wind from SSW
Wind: SSW 5 mph , 7 km/h
Temperature: 79°F , 26°C
Dew Point: 75°F , 24°C
Humidity: 89%
Barometer: 29.99 inHg , 1015.6 hPa
Clouds: Clear
Visibility: 10 miles , 16 km
2024/07/17 09:55 KT35 170955Z AUTO 21004KT 10SM CLR 26/24 A2999 RMK AO2 T02570240
KDZB - Horseshoe Bay, Texas, USA
Distance from station: W 45mi, 73km
Updated: Wed, 17-Jul-2024 4:55am CDT
Clear
Clear
 Wind from S
Wind: S 3 mph , 6 km/h
Temperature: 75°F , 24°C
Dew Point: 72°F , 22°C
Humidity: 89%
Barometer: 30.02 inHg , 1016.6 hPa
Clouds: Clear
Visibility: 10 miles , 16 km
2024/07/17 09:55 KDZB 170955Z AUTO 18003KT 10SM CLR 24/22 A3002 RMK AO2 T02430217
 
KGYB - Giddings-Lee, Texas, USA
Distance from station: SE 45mi, 73km
Updated: Wed, 17-Jul-2024 4:55am CDT
Clear
Clear
 Wind from SSW
Wind: SSW 3 mph , 6 km/h
Temperature: 77°F , 25°C
Dew Point: 75°F , 24°C
Humidity: 94%
Barometer: 30.03 inHg , 1016.9 hPa
Clouds: Clear
Visibility: 10 miles , 16 km
2024/07/17 09:55 KGYB 170955Z AUTO 20003KT 10SM CLR 25/24 A3003 RMK AO2 T02450235
KHYI - San Marcos, Texas, USA
Distance from station: SSW 48mi, 78km
Updated: Wed, 17-Jul-2024 4:56am CDT
Partly cloudy
Partly cloudy
 Wind from calm
Wind: Calm
Temperature: 77°F , 25°C
Dew Point: 75°F , 24°C
Humidity: 94%
Barometer: 30.00 inHg , 1015.9 hPa
Clouds: Partly cloudy
Visibility: 10 miles , 16 km
Cloud details: Partly cloudy 1300 ft
2024/07/17 09:56 KHYI 170956Z AUTO 00000KT 10SM SCT013 25/24 A3000 RMK AO2 SLP148 T02500244
 
KLZZ - Lampasas, Texas, USA
Distance from station: NW 52mi, 84km
Updated: Wed, 03-Apr-2024 9:35am CDT
NOT Current
Clear
Clear
 Wind from WNW
Wind: WNW 7 mph , 11 km/h
Temperature: 61°F , 16°C
Dew Point: 37°F , 3°C
Humidity: 42%
Barometer: 30.03 inHg , 1016.9 hPa
Clouds: Clear
Visibility: 10 miles , 16 km
2024/04/03 14:35 KLZZ 031435Z AUTO 30006KT 270V330 10SM CLR 16/03 A3003 RMK AO2 T01570033
KRWV - Caldwell, Texas, USA
Distance from station: E 54mi, 87km
Updated: Wed, 17-Jul-2024 4:55am CDT
Clear
Clear
 Wind from SSW
Wind: SSW 3 mph , 6 km/h
Temperature: 77°F , 25°C
Dew Point: 75°F , 24°C
Humidity: 94%
Barometer: 30.00 inHg , 1015.9 hPa
Clouds: Clear
Visibility: 10 miles , 16 km
2024/07/17 09:55 KRWV 170955Z AUTO 21003KT 10SM CLR 25/24 A3000 RMK AO2 T02490239
 
K3T5 - La Grange, Texas, USA
Distance from station: SE 59mi, 95km
Updated: Wed, 17-Jul-2024 5:15am CDT
Light rain, Clear
Light rain, Clear
 Wind from calm
Wind: Calm
Temperature: 75°F , 24°C
Dew Point: 75°F , 24°C
Humidity: 100%
Barometer: 29.97 inHg , 1014.9 hPa
Summary: Light rain
Clouds: Clear
Visibility: 8 miles , 13 km
2024/07/17 10:15 K3T5 171015Z AUTO 00000KT 8SM -RA CLR 24/24 A2997 RMK AO2 RAB1006 P0000 T02410241 $
KGOP - Gatesville, Texas, USA
Distance from station: N 61mi, 99km
Updated: Wed, 17-Jul-2024 4:55am CDT
Clear
Clear
 Wind from S
Wind: S 6 mph , 9 km/h
Temperature: 79°F , 26°C
Dew Point: 77°F , 25°C
Humidity: 94%
Barometer: 30.01 inHg , 1016.3 hPa
Clouds: Clear
Visibility: 10 miles , 16 km
2024/07/17 09:55 KGOP 170955Z AUTO 17005KT 10SM CLR 26/25 A3001 RMK AO2
 
KLHB - Hearne Muni, Texas, USA
Distance from station: ENE 63mi, 101km
Updated: Wed, 17-Jul-2024 4:55am CDT
Clear
Clear
 Wind from calm
Wind: Calm
Temperature: 79°F , 26°C
Dew Point: 75°F , 24°C
Humidity: 89%
Barometer: 30.00 inHg , 1015.9 hPa
Clouds: Clear
Visibility: 7 miles , 11 km
2024/07/17 09:55 KLHB 170955Z AUTO 00000KT 7SM CLR 26/24 A3000 RMK AO2 T02570243
KBAZ - New Braunfels, Texas, USA
Distance from station: SSW 63mi, 102km
Updated: Wed, 17-Jul-2024 4:51am CDT
Overcast
Overcast
 Wind from SW
Wind: SW 3 mph , 6 km/h
Temperature: 79°F , 26°C
Dew Point: 75°F , 24°C
Humidity: 89%
Barometer: 29.98 inHg , 1015.2 hPa
Clouds: Overcast
Visibility: 10 miles , 16 km
Cloud details: Overcast 900 ft
2024/07/17 09:51 KBAZ 170951Z AUTO 23003KT 10SM OVC009 26/24 A2998 RMK AO2 SLP140 T02560244 TSNO